sensor_id;sensor_type;location;lat;lon;timestamp;temperature;humidity
28177;DHT22;15461;41.652;9.378;2023-07-31T00:01:14;26.90;99.90
28177;DHT22;15461;41.652;9.378;2023-07-31T00:03:40;26.80;99.90
28177;DHT22;15461;41.652;9.378;2023-07-31T00:06:06;26.80;99.90
28177;DHT22;15461;41.652;9.378;2023-07-31T00:08:32;26.90;99.90
28177;DHT22;15461;41.652;9.378;2023-07-31T00:10:57;27.00;99.90
28177;DHT22;15461;41.652;9.378;2023-07-31T00:13:23;27.10;99.90
28177;DHT22;15461;41.652;9.378;2023-07-31T00:15:49;27.20;99.90
28177;DHT22;15461;41.652;9.378;2023-07-31T00:18:15;27.20;99.90
28177;DHT22;15461;41.652;9.378;2023-07-31T00:20:41;27.10;99.90
28177;DHT22;15461;41.652;9.378;2023-07-31T00:23:07;27.10;99.90
28177;DHT22;15461;41.652;9.378;2023-07-31T00:25:32;27.10;99.90
28177;DHT22;15461;41.652;9.378;2023-07-31T00:27:58;27.20;99.90
28177;DHT22;15461;41.652;9.378;2023-07-31T00:30:25;27.20;99.90
28177;DHT22;15461;41.652;9.378;2023-07-31T00:32:53;27.20;99.90
28177;DHT22;15461;41.652;9.378;2023-07-31T00:35:19;27.10;99.90
28177;DHT22;15461;41.652;9.378;2023-07-31T00:37:44;26.90;99.90
28177;DHT22;15461;41.652;9.378;2023-07-31T00:40:11;26.90;99.90
28177;DHT22;15461;41.652;9.378;2023-07-31T00:42:37;26.90;99.90
28177;DHT22;15461;41.652;9.378;2023-07-31T00:45:03;26.90;99.90
28177;DHT22;15461;41.652;9.378;2023-07-31T00:47:30;26.90;99.90
28177;DHT22;15461;41.652;9.378;2023-07-31T00:49:56;26.80;99.90
28177;DHT22;15461;41.652;9.378;2023-07-31T00:52:23;26.70;99.90
28177;DHT22;15461;41.652;9.378;2023-07-31T00:54:49;26.70;99.90
28177;DHT22;15461;41.652;9.378;2023-07-31T00:57:15;26.60;99.90
28177;DHT22;15461;41.652;9.378;2023-07-31T00:59:41;26.60;99.90
28177;DHT22;15461;41.652;9.378;2023-07-31T01:02:07;26.50;99.90
28177;DHT22;15461;41.652;9.378;2023-07-31T01:04:33;26.60;99.90
28177;DHT22;15461;41.652;9.378;2023-07-31T01:07:22;26.60;99.90
28177;DHT22;15461;41.652;9.378;2023-07-31T01:10:19;26.60;99.90
28177;DHT22;15461;41.652;9.378;2023-07-31T01:12:48;26.60;99.90
28177;DHT22;15461;41.652;9.378;2023-07-31T01:15:13;26.60;99.90
28177;DHT22;15461;41.652;9.378;2023-07-31T01:17:42;26.70;99.90
28177;DHT22;15461;41.652;9.378;2023-07-31T01:26:00;26.80;99.90
28177;DHT22;15461;41.652;9.378;2023-07-31T01:31:20;26.90;99.90
28177;DHT22;15461;41.652;9.378;2023-07-31T01:33:47;26.90;99.90
28177;DHT22;15461;41.652;9.378;2023-07-31T01:36:14;26.90;99.90
28177;DHT22;15461;41.652;9.378;2023-07-31T01:38:39;26.90;99.90
28177;DHT22;15461;41.652;9.378;2023-07-31T01:41:05;26.90;99.90
28177;DHT22;15461;41.652;9.378;2023-07-31T01:43:31;26.80;99.90
28177;DHT22;15461;41.652;9.378;2023-07-31T01:45:57;26.80;99.90
28177;DHT22;15461;41.652;9.378;2023-07-31T01:48:23;26.80;99.90
28177;DHT22;15461;41.652;9.378;2023-07-31T01:50:50;26.80;99.90
28177;DHT22;15461;41.652;9.378;2023-07-31T01:53:15;26.80;99.90
28177;DHT22;15461;41.652;9.378;2023-07-31T01:55:41;26.90;99.90
28177;DHT22;15461;41.652;9.378;2023-07-31T01:58:07;26.90;99.90
28177;DHT22;15461;41.652;9.378;2023-07-31T02:00:33;26.90;99.90
28177;DHT22;15461;41.652;9.378;2023-07-31T02:02:59;26.90;99.90
28177;DHT22;15461;41.652;9.378;2023-07-31T02:05:25;26.90;99.90
28177;DHT22;15461;41.652;9.378;2023-07-31T02:07:51;26.90;99.90
28177;DHT22;15461;41.652;9.378;2023-07-31T02:10:17;26.90;99.90
28177;DHT22;15461;41.652;9.378;2023-07-31T02:12:42;26.90;99.90
28177;DHT22;15461;41.652;9.378;2023-07-31T02:15:09;26.90;99.90
28177;DHT22;15461;41.652;9.378;2023-07-31T02:17:35;26.90;99.90
28177;DHT22;15461;41.652;9.378;2023-07-31T02:20:01;26.90;99.90
28177;DHT22;15461;41.652;9.378;2023-07-31T02:22:27;26.90;99.90
28177;DHT22;15461;41.652;9.378;2023-07-31T02:24:52;27.00;99.90
28177;DHT22;15461;41.652;9.378;2023-07-31T02:27:21;26.90;99.90
28177;DHT22;15461;41.652;9.378;2023-07-31T02:29:49;26.90;99.90
28177;DHT22;15461;41.652;9.378;2023-07-31T02:32:15;26.90;99.90
28177;DHT22;15461;41.652;9.378;2023-07-31T02:34:41;26.90;99.90
28177;DHT22;15461;41.652;9.378;2023-07-31T02:37:08;26.90;99.90
28177;DHT22;15461;41.652;9.378;2023-07-31T02:39:34;26.80;99.90
28177;DHT22;15461;41.652;9.378;2023-07-31T02:42:00;26.80;99.90
28177;DHT22;15461;41.652;9.378;2023-07-31T02:44:26;26.70;99.90
28177;DHT22;15461;41.652;9.378;2023-07-31T02:46:51;26.70;99.90
28177;DHT22;15461;41.652;9.378;2023-07-31T02:49:17;26.60;99.90
28177;DHT22;15461;41.652;9.378;2023-07-31T02:51:43;26.60;99.90
28177;DHT22;15461;41.652;9.378;2023-07-31T02:54:09;26.60;99.90
28177;DHT22;15461;41.652;9.378;2023-07-31T02:56:34;26.50;99.90
28177;DHT22;15461;41.652;9.378;2023-07-31T02:59:00;26.40;99.90
28177;DHT22;15461;41.652;9.378;2023-07-31T03:01:26;26.30;99.90
28177;DHT22;15461;41.652;9.378;2023-07-31T03:03:52;26.30;99.90
28177;DHT22;15461;41.652;9.378;2023-07-31T03:06:18;26.00;99.90
28177;DHT22;15461;41.652;9.378;2023-07-31T03:08:44;25.90;99.90
28177;DHT22;15461;41.652;9.378;2023-07-31T03:11:10;25.70;99.90
28177;DHT22;15461;41.652;9.378;2023-07-31T03:13:36;25.50;99.90
28177;DHT22;15461;41.652;9.378;2023-07-31T03:16:01;25.40;99.90
28177;DHT22;15461;41.652;9.378;2023-07-31T03:18:27;25.40;99.90
28177;DHT22;15461;41.652;9.378;2023-07-31T03:20:53;25.40;99.90
28177;DHT22;15461;41.652;9.378;2023-07-31T03:23:19;25.30;99.90
28177;DHT22;15461;41.652;9.378;2023-07-31T03:26:01;25.20;99.90
28177;DHT22;15461;41.652;9.378;2023-07-31T03:28:29;25.20;99.90
28177;DHT22;15461;41.652;9.378;2023-07-31T03:30:55;25.20;99.90
28177;DHT22;15461;41.652;9.378;2023-07-31T03:33:21;25.20;99.90
28177;DHT22;15461;41.652;9.378;2023-07-31T03:35:47;25.10;99.90
28177;DHT22;15461;41.652;9.378;2023-07-31T03:38:13;25.00;99.90
28177;DHT22;15461;41.652;9.378;2023-07-31T03:40:39;25.00;99.90
28177;DHT22;15461;41.652;9.378;2023-07-31T03:43:05;24.90;99.90
28177;DHT22;15461;41.652;9.378;2023-07-31T03:45:31;24.90;99.90
28177;DHT22;15461;41.652;9.378;2023-07-31T03:47:57;24.80;99.90
28177;DHT22;15461;41.652;9.378;2023-07-31T03:50:25;24.80;99.90
28177;DHT22;15461;41.652;9.378;2023-07-31T03:52:51;24.70;99.90
28177;DHT22;15461;41.652;9.378;2023-07-31T03:55:17;24.60;99.90
28177;DHT22;15461;41.652;9.378;2023-07-31T03:57:43;24.50;99.90
28177;DHT22;15461;41.652;9.378;2023-07-31T04:00:10;24.40;99.90
28177;DHT22;15461;41.652;9.378;2023-07-31T04:02:38;24.20;99.90
28177;DHT22;15461;41.652;9.378;2023-07-31T04:05:04;24.10;99.90
28177;DHT22;15461;41.652;9.378;2023-07-31T04:07:30;24.00;99.90
28177;DHT22;15461;41.652;9.378;2023-07-31T04:09:57;23.90;99.90
28177;DHT22;15461;41.652;9.378;2023-07-31T04:12:23;23.90;99.90
28177;DHT22;15461;41.652;9.378;2023-07-31T04:14:49;23.70;99.90
28177;DHT22;15461;41.652;9.378;2023-07-31T04:17:15;23.50;99.90
28177;DHT22;15461;41.652;9.378;2023-07-31T04:19:40;23.40;99.90
28177;DHT22;15461;41.652;9.378;2023-07-31T04:22:06;23.30;99.90
28177;DHT22;15461;41.652;9.378;2023-07-31T04:24:32;23.20;99.90
28177;DHT22;15461;41.652;9.378;2023-07-31T04:26:58;23.10;99.90
28177;DHT22;15461;41.652;9.378;2023-07-31T04:29:23;22.90;99.90
28177;DHT22;15461;41.652;9.378;2023-07-31T04:31:49;22.90;99.90
28177;DHT22;15461;41.652;9.378;2023-07-31T04:34:15;22.80;99.90
28177;DHT22;15461;41.652;9.378;2023-07-31T04:36:41;22.70;99.90
28177;DHT22;15461;41.652;9.378;2023-07-31T04:39:06;22.60;99.90
28177;DHT22;15461;41.652;9.378;2023-07-31T04:41:32;22.50;99.90
28177;DHT22;15461;41.652;9.378;2023-07-31T04:43:58;22.40;99.90
28177;DHT22;15461;41.652;9.378;2023-07-31T04:46:24;22.40;99.90
28177;DHT22;15461;41.652;9.378;2023-07-31T04:48:50;22.30;99.90
28177;DHT22;15461;41.652;9.378;2023-07-31T04:51:15;22.20;99.90
28177;DHT22;15461;41.652;9.378;2023-07-31T04:53:41;22.20;99.90
28177;DHT22;15461;41.652;9.378;2023-07-31T04:56:07;22.30;99.90
28177;DHT22;15461;41.652;9.378;2023-07-31T04:58:33;22.30;99.90
28177;DHT22;15461;41.652;9.378;2023-07-31T05:00:58;22.30;99.90
28177;DHT22;15461;41.652;9.378;2023-07-31T05:03:24;22.30;99.90
28177;DHT22;15461;41.652;9.378;2023-07-31T05:05:50;22.30;99.90
28177;DHT22;15461;41.652;9.378;2023-07-31T05:08:16;22.30;99.90
28177;DHT22;15461;41.652;9.378;2023-07-31T05:10:43;22.40;99.90
28177;DHT22;15461;41.652;9.378;2023-07-31T05:13:09;22.50;99.90
28177;DHT22;15461;41.652;9.378;2023-07-31T05:15:35;22.50;99.90
28177;DHT22;15461;41.652;9.378;2023-07-31T05:18:00;22.50;99.90
28177;DHT22;15461;41.652;9.378;2023-07-31T05:20:26;22.60;99.90
28177;DHT22;15461;41.652;9.378;2023-07-31T05:22:53;22.70;99.90
28177;DHT22;15461;41.652;9.378;2023-07-31T05:25:19;22.90;99.90
28177;DHT22;15461;41.652;9.378;2023-07-31T05:27:45;23.00;99.90
28177;DHT22;15461;41.652;9.378;2023-07-31T05:30:10;23.10;99.90
28177;DHT22;15461;41.652;9.378;2023-07-31T05:32:36;23.10;99.90
28177;DHT22;15461;41.652;9.378;2023-07-31T05:35:02;23.20;99.90
28177;DHT22;15461;41.652;9.378;2023-07-31T05:37:28;23.20;99.90
28177;DHT22;15461;41.652;9.378;2023-07-31T05:39:54;23.40;99.90
28177;DHT22;15461;41.652;9.378;2023-07-31T05:42:20;23.60;99.90
28177;DHT22;15461;41.652;9.378;2023-07-31T05:44:45;23.90;99.90
28177;DHT22;15461;41.652;9.378;2023-07-31T05:47:12;24.20;99.90
28177;DHT22;15461;41.652;9.378;2023-07-31T05:49:38;24.50;99.90
28177;DHT22;15461;41.652;9.378;2023-07-31T05:52:04;24.80;99.90
28177;DHT22;15461;41.652;9.378;2023-07-31T05:54:32;25.00;99.90
28177;DHT22;15461;41.652;9.378;2023-07-31T05:56:58;25.20;99.90
28177;DHT22;15461;41.652;9.378;2023-07-31T05:59:24;25.30;99.90
28177;DHT22;15461;41.652;9.378;2023-07-31T06:01:50;25.50;99.90
28177;DHT22;15461;41.652;9.378;2023-07-31T06:04:15;25.70;99.90
28177;DHT22;15461;41.652;9.378;2023-07-31T06:06:41;25.80;99.90
28177;DHT22;15461;41.652;9.378;2023-07-31T06:09:07;25.90;99.90
28177;DHT22;15461;41.652;9.378;2023-07-31T06:11:33;26.00;99.90
28177;DHT22;15461;41.652;9.378;2023-07-31T06:13:58;26.10;99.90
28177;DHT22;15461;41.652;9.378;2023-07-31T06:16:25;26.20;99.90
28177;DHT22;15461;41.652;9.378;2023-07-31T06:18:52;26.30;99.90
28177;DHT22;15461;41.652;9.378;2023-07-31T06:21:18;26.40;99.90
28177;DHT22;15461;41.652;9.378;2023-07-31T06:23:44;26.50;99.90
28177;DHT22;15461;41.652;9.378;2023-07-31T06:26:09;26.60;99.90
28177;DHT22;15461;41.652;9.378;2023-07-31T06:28:35;26.70;99.90
28177;DHT22;15461;41.652;9.378;2023-07-31T06:31:01;26.80;99.90
28177;DHT22;15461;41.652;9.378;2023-07-31T06:33:27;27.00;99.90
28177;DHT22;15461;41.652;9.378;2023-07-31T06:35:53;27.10;99.90
28177;DHT22;15461;41.652;9.378;2023-07-31T06:38:24;27.20;99.90
28177;DHT22;15461;41.652;9.378;2023-07-31T06:40:50;27.30;99.90
28177;DHT22;15461;41.652;9.378;2023-07-31T06:43:16;27.50;99.90
28177;DHT22;15461;41.652;9.378;2023-07-31T06:45:42;27.60;99.90
28177;DHT22;15461;41.652;9.378;2023-07-31T06:48:08;27.70;99.90
28177;DHT22;15461;41.652;9.378;2023-07-31T06:50:33;27.80;99.90
28177;DHT22;15461;41.652;9.378;2023-07-31T06:52:59;27.90;99.90
28177;DHT22;15461;41.652;9.378;2023-07-31T06:55:26;28.10;99.90
28177;DHT22;15461;41.652;9.378;2023-07-31T06:57:53;28.20;99.90
28177;DHT22;15461;41.652;9.378;2023-07-31T07:00:20;28.40;99.90
28177;DHT22;15461;41.652;9.378;2023-07-31T07:02:47;28.70;99.90
28177;DHT22;15461;41.652;9.378;2023-07-31T07:05:14;28.80;99.90
28177;DHT22;15461;41.652;9.378;2023-07-31T07:07:40;29.00;99.90
28177;DHT22;15461;41.652;9.378;2023-07-31T07:10:07;29.20;99.90
28177;DHT22;15461;41.652;9.378;2023-07-31T07:12:33;29.40;99.90
28177;DHT22;15461;41.652;9.378;2023-07-31T07:14:59;29.60;99.90
28177;DHT22;15461;41.652;9.378;2023-07-31T07:17:26;29.70;99.50
28177;DHT22;15461;41.652;9.378;2023-07-31T07:19:52;29.80;98.70
28177;DHT22;15461;41.652;9.378;2023-07-31T07:22:18;30.00;97.70
28177;DHT22;15461;41.652;9.378;2023-07-31T07:24:44;30.10;96.50
28177;DHT22;15461;41.652;9.378;2023-07-31T07:27:10;30.20;97.00
28177;DHT22;15461;41.652;9.378;2023-07-31T07:29:37;30.40;96.10
28177;DHT22;15461;41.652;9.378;2023-07-31T07:32:03;30.60;99.80
28177;DHT22;15461;41.652;9.378;2023-07-31T07:34:29;30.60;99.90
28177;DHT22;15461;41.652;9.378;2023-07-31T07:36:55;30.70;99.90
28177;DHT22;15461;41.652;9.378;2023-07-31T07:39:21;30.70;99.90
28177;DHT22;15461;41.652;9.378;2023-07-31T07:41:47;30.50;99.90
28177;DHT22;15461;41.652;9.378;2023-07-31T07:44:14;30.30;99.90
28177;DHT22;15461;41.652;9.378;2023-07-31T07:46:40;29.90;99.90
28177;DHT22;15461;41.652;9.378;2023-07-31T07:49:06;29.90;99.90
28177;DHT22;15461;41.652;9.378;2023-07-31T07:51:32;30.10;99.90
28177;DHT22;15461;41.652;9.378;2023-07-31T07:53:58;30.10;99.90
28177;DHT22;15461;41.652;9.378;2023-07-31T07:56:26;30.20;99.90
28177;DHT22;15461;41.652;9.378;2023-07-31T07:58:53;30.20;99.90
28177;DHT22;15461;41.652;9.378;2023-07-31T08:01:19;30.20;99.90
28177;DHT22;15461;41.652;9.378;2023-07-31T08:03:46;30.10;99.90
28177;DHT22;15461;41.652;9.378;2023-07-31T08:06:12;30.00;99.90
28177;DHT22;15461;41.652;9.378;2023-07-31T08:08:38;30.10;99.90
28177;DHT22;15461;41.652;9.378;2023-07-31T08:11:04;29.90;99.90
28177;DHT22;15461;41.652;9.378;2023-07-31T08:13:30;29.90;99.90
28177;DHT22;15461;41.652;9.378;2023-07-31T08:15:56;29.90;99.90
28177;DHT22;15461;41.652;9.378;2023-07-31T08:18:22;30.00;99.90
28177;DHT22;15461;41.652;9.378;2023-07-31T08:20:48;30.10;99.90
28177;DHT22;15461;41.652;9.378;2023-07-31T08:23:14;30.20;99.90
28177;DHT22;15461;41.652;9.378;2023-07-31T08:25:40;30.20;99.90
28177;DHT22;15461;41.652;9.378;2023-07-31T08:28:06;30.10;99.90
28177;DHT22;15461;41.652;9.378;2023-07-31T08:30:33;30.20;99.90
28177;DHT22;15461;41.652;9.378;2023-07-31T08:33:02;30.20;99.90
28177;DHT22;15461;41.652;9.378;2023-07-31T08:35:28;30.10;99.90
28177;DHT22;15461;41.652;9.378;2023-07-31T08:37:54;30.10;99.90
28177;DHT22;15461;41.652;9.378;2023-07-31T08:40:20;30.20;99.90
28177;DHT22;15461;41.652;9.378;2023-07-31T08:42:48;30.00;99.90
28177;DHT22;15461;41.652;9.378;2023-07-31T08:45:18;29.90;99.90
28177;DHT22;15461;41.652;9.378;2023-07-31T08:47:46;29.90;99.90
28177;DHT22;15461;41.652;9.378;2023-07-31T08:50:13;29.90;99.90
28177;DHT22;15461;41.652;9.378;2023-07-31T08:52:40;30.20;99.90
28177;DHT22;15461;41.652;9.378;2023-07-31T08:55:06;30.30;99.90
28177;DHT22;15461;41.652;9.378;2023-07-31T08:57:35;30.30;99.90
28177;DHT22;15461;41.652;9.378;2023-07-31T09:00:03;30.30;99.90
28177;DHT22;15461;41.652;9.378;2023-07-31T09:02:45;30.20;99.90
28177;DHT22;15461;41.652;9.378;2023-07-31T09:05:12;30.30;99.90
28177;DHT22;15461;41.652;9.378;2023-07-31T09:07:38;30.40;99.90
28177;DHT22;15461;41.652;9.378;2023-07-31T09:10:05;30.50;99.90
28177;DHT22;15461;41.652;9.378;2023-07-31T09:12:31;30.50;99.90
28177;DHT22;15461;41.652;9.378;2023-07-31T09:14:59;30.50;99.90
28177;DHT22;15461;41.652;9.378;2023-07-31T09:17:36;30.50;99.90
28177;DHT22;15461;41.652;9.378;2023-07-31T09:20:21;30.70;99.90
28177;DHT22;15461;41.652;9.378;2023-07-31T09:22:49;30.70;99.90
28177;DHT22;15461;41.652;9.378;2023-07-31T09:25:23;30.70;99.90
28177;DHT22;15461;41.652;9.378;2023-07-31T09:30:18;30.80;99.90
28177;DHT22;15461;41.652;9.378;2023-07-31T09:32:45;30.70;99.90
28177;DHT22;15461;41.652;9.378;2023-07-31T09:35:27;30.90;99.90
28177;DHT22;15461;41.652;9.378;2023-07-31T09:37:55;30.90;99.90
28177;DHT22;15461;41.652;9.378;2023-07-31T09:40:45;30.80;99.90
28177;DHT22;15461;41.652;9.378;2023-07-31T09:43:13;30.90;99.90
28177;DHT22;15461;41.652;9.378;2023-07-31T09:45:43;31.10;99.90
28177;DHT22;15461;41.652;9.378;2023-07-31T09:48:13;31.10;99.90
28177;DHT22;15461;41.652;9.378;2023-07-31T09:50:46;30.90;99.90
28177;DHT22;15461;41.652;9.378;2023-07-31T09:53:12;30.80;99.90
28177;DHT22;15461;41.652;9.378;2023-07-31T09:55:39;30.90;99.90
28177;DHT22;15461;41.652;9.378;2023-07-31T09:58:07;30.90;99.90
28177;DHT22;15461;41.652;9.378;2023-07-31T10:00:34;30.80;99.90
28177;DHT22;15461;41.652;9.378;2023-07-31T10:03:06;30.90;99.90
28177;DHT22;15461;41.652;9.378;2023-07-31T10:08:03;30.80;99.90
28177;DHT22;15461;41.652;9.378;2023-07-31T10:10:29;30.80;99.90
28177;DHT22;15461;41.652;9.378;2023-07-31T10:12:56;30.60;99.90
28177;DHT22;15461;41.652;9.378;2023-07-31T10:15:23;30.50;99.90
28177;DHT22;15461;41.652;9.378;2023-07-31T10:17:50;30.50;99.90
28177;DHT22;15461;41.652;9.378;2023-07-31T10:20:17;30.50;99.90
28177;DHT22;15461;41.652;9.378;2023-07-31T10:22:43;30.60;99.90
28177;DHT22;15461;41.652;9.378;2023-07-31T10:25:11;30.80;99.90
28177;DHT22;15461;41.652;9.378;2023-07-31T10:27:39;30.90;99.90
28177;DHT22;15461;41.652;9.378;2023-07-31T10:30:09;30.90;99.90
28177;DHT22;15461;41.652;9.378;2023-07-31T10:32:35;30.80;99.90
28177;DHT22;15461;41.652;9.378;2023-07-31T10:35:02;30.60;99.90
28177;DHT22;15461;41.652;9.378;2023-07-31T10:37:36;30.70;99.90
28177;DHT22;15461;41.652;9.378;2023-07-31T10:40:17;30.80;99.90
28177;DHT22;15461;41.652;9.378;2023-07-31T10:42:54;30.80;99.90
28177;DHT22;15461;41.652;9.378;2023-07-31T10:45:36;30.70;99.90
28177;DHT22;15461;41.652;9.378;2023-07-31T10:48:04;30.60;99.90
28177;DHT22;15461;41.652;9.378;2023-07-31T10:50:32;30.70;99.90
28177;DHT22;15461;41.652;9.378;2023-07-31T10:52:58;30.50;99.90
28177;DHT22;15461;41.652;9.378;2023-07-31T10:55:35;30.40;99.90
28177;DHT22;15461;41.652;9.378;2023-07-31T10:58:11;30.40;99.90
28177;DHT22;15461;41.652;9.378;2023-07-31T11:00:37;30.30;99.90
28177;DHT22;15461;41.652;9.378;2023-07-31T11:03:17;30.20;99.90
28177;DHT22;15461;41.652;9.378;2023-07-31T11:06:00;30.20;99.90
28177;DHT22;15461;41.652;9.378;2023-07-31T11:08:36;30.40;99.90
28177;DHT22;15461;41.652;9.378;2023-07-31T11:11:08;30.40;99.90
28177;DHT22;15461;41.652;9.378;2023-07-31T11:13:43;30.20;99.90
28177;DHT22;15461;41.652;9.378;2023-07-31T11:16:11;30.20;99.90
28177;DHT22;15461;41.652;9.378;2023-07-31T11:18:39;30.40;99.90
28177;DHT22;15461;41.652;9.378;2023-07-31T11:21:06;30.50;99.90
28177;DHT22;15461;41.652;9.378;2023-07-31T11:23:32;30.70;99.90
28177;DHT22;15461;41.652;9.378;2023-07-31T11:26:01;30.80;99.90
28177;DHT22;15461;41.652;9.378;2023-07-31T11:28:32;30.90;99.90
28177;DHT22;15461;41.652;9.378;2023-07-31T11:30:59;30.80;99.90
28177;DHT22;15461;41.652;9.378;2023-07-31T11:33:26;30.80;99.90
28177;DHT22;15461;41.652;9.378;2023-07-31T11:35:51;30.90;99.90
28177;DHT22;15461;41.652;9.378;2023-07-31T11:38:25;31.20;99.90
28177;DHT22;15461;41.652;9.378;2023-07-31T11:40:56;31.50;99.90
28177;DHT22;15461;41.652;9.378;2023-07-31T11:43:22;31.60;99.90
28177;DHT22;15461;41.652;9.378;2023-07-31T11:45:54;31.50;99.90
28177;DHT22;15461;41.652;9.378;2023-07-31T11:48:27;31.50;99.90
28177;DHT22;15461;41.652;9.378;2023-07-31T11:50:57;31.50;99.90
28177;DHT22;15461;41.652;9.378;2023-07-31T11:56:11;32.00;99.90
28177;DHT22;15461;41.652;9.378;2023-07-31T11:58:39;32.30;99.90
28177;DHT22;15461;41.652;9.378;2023-07-31T12:01:05;32.30;99.90
28177;DHT22;15461;41.652;9.378;2023-07-31T12:03:32;32.40;99.90
28177;DHT22;15461;41.652;9.378;2023-07-31T12:05:59;32.50;99.90
28177;DHT22;15461;41.652;9.378;2023-07-31T12:08:25;32.50;99.90
28177;DHT22;15461;41.652;9.378;2023-07-31T12:10:54;32.50;99.90
28177;DHT22;15461;41.652;9.378;2023-07-31T12:13:25;32.40;99.50
28177;DHT22;15461;41.652;9.378;2023-07-31T12:15:56;32.30;99.90
28177;DHT22;15461;41.652;9.378;2023-07-31T12:18:24;32.40;98.80
28177;DHT22;15461;41.652;9.378;2023-07-31T12:21:00;32.30;96.80
28177;DHT22;15461;41.652;9.378;2023-07-31T12:23:28;32.40;97.60
28177;DHT22;15461;41.652;9.378;2023-07-31T12:28:29;32.20;97.50
28177;DHT22;15461;41.652;9.378;2023-07-31T12:30:59;32.20;96.10
28177;DHT22;15461;41.652;9.378;2023-07-31T12:33:31;32.20;95.60
28177;DHT22;15461;41.652;9.378;2023-07-31T12:36:00;32.20;95.70
28177;DHT22;15461;41.652;9.378;2023-07-31T12:38:26;32.30;95.50
28177;DHT22;15461;41.652;9.378;2023-07-31T12:40:52;32.40;94.40
28177;DHT22;15461;41.652;9.378;2023-07-31T12:43:17;32.50;93.90
28177;DHT22;15461;41.652;9.378;2023-07-31T12:45:43;32.50;93.20
28177;DHT22;15461;41.652;9.378;2023-07-31T12:48:09;32.40;92.60
28177;DHT22;15461;41.652;9.378;2023-07-31T12:50:35;32.40;92.80
28177;DHT22;15461;41.652;9.378;2023-07-31T12:53:02;32.40;92.60
28177;DHT22;15461;41.652;9.378;2023-07-31T12:55:29;32.40;92.40
28177;DHT22;15461;41.652;9.378;2023-07-31T12:57:55;32.50;93.40
28177;DHT22;15461;41.652;9.378;2023-07-31T13:00:22;32.50;92.50
28177;DHT22;15461;41.652;9.378;2023-07-31T13:02:47;32.60;92.80
28177;DHT22;15461;41.652;9.378;2023-07-31T13:05:14;32.50;92.50
28177;DHT22;15461;41.652;9.378;2023-07-31T13:07:40;32.50;92.00
28177;DHT22;15461;41.652;9.378;2023-07-31T13:10:07;32.50;91.70
28177;DHT22;15461;41.652;9.378;2023-07-31T13:12:33;32.50;91.60
28177;DHT22;15461;41.652;9.378;2023-07-31T13:14:59;32.50;92.00
28177;DHT22;15461;41.652;9.378;2023-07-31T13:17:24;32.60;92.60
28177;DHT22;15461;41.652;9.378;2023-07-31T13:19:50;32.60;92.00
28177;DHT22;15461;41.652;9.378;2023-07-31T13:22:16;32.70;91.60
28177;DHT22;15461;41.652;9.378;2023-07-31T13:24:42;32.70;92.60
28177;DHT22;15461;41.652;9.378;2023-07-31T13:27:08;32.70;93.00
28177;DHT22;15461;41.652;9.378;2023-07-31T13:29:33;32.60;93.40
28177;DHT22;15461;41.652;9.378;2023-07-31T13:31:59;32.50;93.80
28177;DHT22;15461;41.652;9.378;2023-07-31T13:34:25;32.60;94.10
28177;DHT22;15461;41.652;9.378;2023-07-31T13:36:51;32.50;92.30
28177;DHT22;15461;41.652;9.378;2023-07-31T13:39:16;32.60;93.90
28177;DHT22;15461;41.652;9.378;2023-07-31T13:41:42;32.60;94.20
28177;DHT22;15461;41.652;9.378;2023-07-31T13:44:08;32.60;93.00
28177;DHT22;15461;41.652;9.378;2023-07-31T13:46:34;32.60;93.60
28177;DHT22;15461;41.652;9.378;2023-07-31T13:48:59;32.70;92.30
28177;DHT22;15461;41.652;9.378;2023-07-31T13:51:27;32.70;91.60
28177;DHT22;15461;41.652;9.378;2023-07-31T13:53:54;32.80;91.90
28177;DHT22;15461;41.652;9.378;2023-07-31T13:56:19;32.70;91.90
28177;DHT22;15461;41.652;9.378;2023-07-31T13:58:45;32.80;91.90
28177;DHT22;15461;41.652;9.378;2023-07-31T14:01:11;32.80;90.90
28177;DHT22;15461;41.652;9.378;2023-07-31T14:03:37;32.80;91.20
28177;DHT22;15461;41.652;9.378;2023-07-31T14:06:03;32.80;91.20
28177;DHT22;15461;41.652;9.378;2023-07-31T14:08:29;32.70;91.70
28177;DHT22;15461;41.652;9.378;2023-07-31T14:10:56;32.60;92.10
28177;DHT22;15461;41.652;9.378;2023-07-31T14:13:22;32.60;91.90
28177;DHT22;15461;41.652;9.378;2023-07-31T14:15:47;32.60;91.60
28177;DHT22;15461;41.652;9.378;2023-07-31T14:18:13;32.60;93.30
28177;DHT22;15461;41.652;9.378;2023-07-31T14:20:39;32.70;93.50
28177;DHT22;15461;41.652;9.378;2023-07-31T14:23:05;32.70;94.00
28177;DHT22;15461;41.652;9.378;2023-07-31T14:25:31;32.70;95.40
28177;DHT22;15461;41.652;9.378;2023-07-31T14:27:57;32.30;99.90
28177;DHT22;15461;41.652;9.378;2023-07-31T14:30:23;32.20;99.90
28177;DHT22;15461;41.652;9.378;2023-07-31T14:32:48;31.90;99.90
28177;DHT22;15461;41.652;9.378;2023-07-31T14:35:14;31.70;99.90
28177;DHT22;15461;41.652;9.378;2023-07-31T14:37:42;31.40;99.90
28177;DHT22;15461;41.652;9.378;2023-07-31T14:40:09;31.00;99.90
28177;DHT22;15461;41.652;9.378;2023-07-31T14:42:36;30.90;99.90
28177;DHT22;15461;41.652;9.378;2023-07-31T14:45:03;30.80;99.90
28177;DHT22;15461;41.652;9.378;2023-07-31T14:47:29;30.90;99.90
28177;DHT22;15461;41.652;9.378;2023-07-31T14:49:56;31.00;99.90
28177;DHT22;15461;41.652;9.378;2023-07-31T14:52:22;31.10;99.90
28177;DHT22;15461;41.652;9.378;2023-07-31T14:54:48;31.10;99.90
28177;DHT22;15461;41.652;9.378;2023-07-31T14:57:14;31.10;99.90
28177;DHT22;15461;41.652;9.378;2023-07-31T14:59:39;31.10;99.90
28177;DHT22;15461;41.652;9.378;2023-07-31T15:02:06;31.00;99.90
28177;DHT22;15461;41.652;9.378;2023-07-31T15:04:32;30.80;99.90
28177;DHT22;15461;41.652;9.378;2023-07-31T15:06:57;30.70;99.90
28177;DHT22;15461;41.652;9.378;2023-07-31T15:09:23;30.70;99.90
28177;DHT22;15461;41.652;9.378;2023-07-31T15:11:49;30.60;99.90
28177;DHT22;15461;41.652;9.378;2023-07-31T15:14:15;30.60;99.90
28177;DHT22;15461;41.652;9.378;2023-07-31T15:16:41;30.60;99.90
28177;DHT22;15461;41.652;9.378;2023-07-31T15:19:07;30.50;99.90
28177;DHT22;15461;41.652;9.378;2023-07-31T15:21:33;30.50;99.90
28177;DHT22;15461;41.652;9.378;2023-07-31T15:23:58;30.70;99.90
28177;DHT22;15461;41.652;9.378;2023-07-31T15:26:24;30.80;99.90
28177;DHT22;15461;41.652;9.378;2023-07-31T15:28:56;30.80;99.90
28177;DHT22;15461;41.652;9.378;2023-07-31T15:31:21;30.90;99.90
28177;DHT22;15461;41.652;9.378;2023-07-31T15:33:50;30.70;99.90
28177;DHT22;15461;41.652;9.378;2023-07-31T15:36:16;30.90;99.90
28177;DHT22;15461;41.652;9.378;2023-07-31T15:38:42;31.10;99.90
28177;DHT22;15461;41.652;9.378;2023-07-31T15:41:08;31.20;99.90
28177;DHT22;15461;41.652;9.378;2023-07-31T15:43:34;31.20;99.90
28177;DHT22;15461;41.652;9.378;2023-07-31T15:46:00;31.20;99.90
28177;DHT22;15461;41.652;9.378;2023-07-31T15:48:26;31.30;99.90